createdAt,value
2023-04-21T00:01:59.249Z,6.40
2023-04-21T00:04:26.747Z,6.50
2023-04-21T00:06:54.552Z,6.33
2023-04-21T00:09:22.811Z,5.77
2023-04-21T00:11:49.766Z,6.60
2023-04-21T00:14:16.728Z,6.50
2023-04-21T00:16:43.719Z,6.90
2023-04-21T00:19:11.014Z,6.40
2023-04-21T00:21:37.892Z,6.70
2023-04-21T00:24:05.515Z,6.63
2023-04-21T00:26:32.484Z,7.77
2023-04-21T00:28:59.372Z,7.30
2023-04-21T00:31:26.396Z,7.30
2023-04-21T00:33:53.936Z,7.57
2023-04-21T00:36:20.809Z,6.73
2023-04-21T00:38:47.710Z,6.40
2023-04-21T00:41:14.621Z,6.40
2023-04-21T00:44:01.754Z,6.57
2023-04-21T00:46:29.714Z,7.00
2023-04-21T00:48:58.050Z,6.57
2023-04-21T00:51:27.110Z,6.30
2023-04-21T00:53:55.870Z,6.20
2023-04-21T00:56:22.842Z,6.27
2023-04-21T00:58:50.595Z,6.63
2023-04-21T01:01:17.590Z,6.43
2023-04-21T01:03:45.645Z,5.93
2023-04-21T01:06:12.808Z,6.20
2023-04-21T01:08:39.873Z,5.93
2023-04-21T01:11:13.880Z,6.83
2023-04-21T01:13:41.399Z,7.20
2023-04-21T01:16:08.337Z,6.57
2023-04-21T01:18:36.981Z,7.00
2023-04-21T01:21:04.754Z,7.63
2023-04-21T01:23:31.724Z,8.10
2023-04-21T01:25:58.700Z,8.80
2023-04-21T01:28:26.661Z,10.63
2023-04-21T01:30:53.810Z,9.83
2023-04-21T01:33:21.415Z,10.13
2023-04-21T01:35:48.544Z,10.03
2023-04-21T01:38:19.533Z,9.47
2023-04-21T01:40:52.118Z,9.33
2023-04-21T01:43:22.209Z,9.17
2023-04-21T01:45:49.220Z,9.03
2023-04-21T01:48:16.237Z,10.03
2023-04-21T01:50:43.202Z,10.00
2023-04-21T01:53:10.395Z,9.13
2023-04-21T01:55:37.270Z,9.90
2023-04-21T01:58:04.279Z,10.00
2023-04-21T02:00:31.354Z,8.80
2023-04-21T02:02:58.436Z,8.97
2023-04-21T02:05:25.627Z,9.23
2023-04-21T02:07:52.543Z,9.00
2023-04-21T02:10:19.711Z,9.17
2023-04-21T02:12:46.619Z,9.20
2023-04-21T02:15:13.604Z,8.50
2023-04-21T02:17:40.606Z,8.87
2023-04-21T02:20:08.824Z,8.23
2023-04-21T02:22:35.757Z,8.13
2023-04-21T02:25:02.606Z,8.10
2023-04-21T02:27:29.692Z,8.53
2023-04-21T02:29:56.675Z,8.60
2023-04-21T02:32:25.955Z,7.47
2023-04-21T02:34:53.565Z,8.10
2023-04-21T02:37:21.126Z,9.00
2023-04-21T02:39:48.160Z,7.03
2023-04-21T02:42:15.112Z,7.67
2023-04-21T02:44:43.003Z,8.27
2023-04-21T02:47:10.014Z,7.60
2023-04-21T02:49:42.100Z,7.77
2023-04-21T02:52:09.123Z,7.43
2023-04-21T02:54:36.065Z,8.37
2023-04-21T02:57:03.405Z,6.40
2023-04-21T02:59:30.346Z,7.27
2023-04-21T03:01:57.248Z,6.53
2023-04-21T03:04:25.487Z,7.73
2023-04-21T03:06:53.878Z,6.90
2023-04-21T03:09:21.083Z,7.37
2023-04-21T03:11:48.133Z,7.30
2023-04-21T03:14:15.076Z,6.63
2023-04-21T03:16:42.088Z,7.33
2023-04-21T03:19:09.278Z,8.13
2023-04-21T03:21:39.207Z,8.63
2023-04-21T03:24:07.426Z,7.63
2023-04-21T03:26:34.540Z,8.00
2023-04-21T03:29:01.475Z,7.30
2023-04-21T03:31:28.451Z,8.40
2023-04-21T03:33:55.414Z,8.77
2023-04-21T03:36:22.305Z,9.10
2023-04-21T03:38:49.202Z,7.67
2023-04-21T03:41:16.317Z,9.50
2023-04-21T03:43:43.316Z,9.77
2023-04-21T03:46:21.885Z,8.00
2023-04-21T03:48:49.218Z,9.80
2023-04-21T03:51:16.123Z,9.33
2023-04-21T03:53:43.124Z,8.63
2023-04-21T03:56:10.190Z,8.20
2023-04-21T03:58:37.296Z,8.60
2023-04-21T04:01:07.858Z,9.60
2023-04-21T04:03:35.019Z,8.20
2023-04-21T04:06:04.054Z,8.73
2023-04-21T04:08:31.362Z,10.73
2023-04-21T04:10:58.350Z,9.93
2023-04-21T04:13:26.541Z,10.80
2023-04-21T04:15:53.992Z,9.60
2023-04-21T04:18:21.447Z,9.60
2023-04-21T04:20:48.462Z,10.23
2023-04-21T04:23:15.373Z,8.63
2023-04-21T04:25:42.820Z,8.90
2023-04-21T04:28:10.557Z,8.73
2023-04-21T04:30:37.614Z,8.57
2023-04-21T04:33:05.049Z,8.83
2023-04-21T04:35:32.042Z,8.67
2023-04-21T04:37:59.189Z,9.40
2023-04-21T04:40:26.310Z,8.80
2023-04-21T04:42:53.278Z,9.17
2023-04-21T04:45:22.312Z,9.10
2023-04-21T04:47:50.265Z,9.57
2023-04-21T04:50:17.164Z,8.57
2023-04-21T04:52:46.943Z,8.57
2023-04-21T04:55:14.450Z,8.40
2023-04-21T04:57:41.701Z,9.20
2023-04-21T05:00:11.387Z,9.40
2023-04-21T05:02:39.234Z,8.70
2023-04-21T05:05:08.183Z,9.17
2023-04-21T05:07:35.402Z,8.93
2023-04-21T05:10:04.460Z,9.60
2023-04-21T05:12:34.396Z,9.37
2023-04-21T05:15:01.386Z,8.10
2023-04-21T05:17:30.984Z,8.33
2023-04-21T05:19:58.165Z,9.00
2023-04-21T05:22:26.077Z,9.47
2023-04-21T05:24:54.798Z,8.60
2023-04-21T05:27:21.708Z,9.20
2023-04-21T05:29:48.896Z,8.73
2023-04-21T05:32:15.959Z,8.80
2023-04-21T05:34:42.970Z,10.77
2023-04-21T05:37:12.159Z,7.67
2023-04-21T05:39:39.182Z,9.10
2023-04-21T05:42:06.656Z,8.27
2023-04-21T05:44:33.595Z,8.00
2023-04-21T05:47:00.509Z,9.47
2023-04-21T05:49:27.608Z,10.40
2023-04-21T05:51:54.513Z,8.73
2023-04-21T05:54:21.707Z,9.27
2023-04-21T05:56:48.879Z,8.33
2023-04-21T05:59:16.117Z,9.10
2023-04-21T06:01:43.745Z,7.23
2023-04-21T06:04:11.058Z,7.00
2023-04-21T06:06:38.252Z,8.10
2023-04-21T06:09:05.697Z,7.30
2023-04-21T06:11:33.433Z,9.40
2023-04-21T06:14:01.794Z,9.23
2023-04-21T06:16:29.379Z,8.97
2023-04-21T06:18:58.934Z,9.30
2023-04-21T06:21:25.949Z,9.23
2023-04-21T06:23:52.865Z,15.50
2023-04-21T06:26:19.796Z,44.90
2023-04-21T06:28:46.768Z,16.93
2023-04-21T06:31:16.260Z,9.87
2023-04-21T06:33:43.267Z,9.77
2023-04-21T06:36:10.192Z,7.50
2023-04-21T06:38:37.149Z,7.93
2023-04-21T06:41:04.587Z,8.43
2023-04-21T06:43:31.643Z,8.20
2023-04-21T06:45:58.694Z,8.20
2023-04-21T06:48:26.436Z,8.87
2023-04-21T06:50:53.336Z,8.97
2023-04-21T06:53:21.710Z,6.80
2023-04-21T06:55:49.202Z,11.47
2023-04-21T06:58:16.269Z,17.00
2023-04-21T07:00:43.302Z,12.73
2023-04-21T07:03:10.482Z,10.50
2023-04-21T07:05:37.737Z,13.70
2023-04-21T07:08:04.681Z,9.17
2023-04-21T07:10:31.994Z,10.70
2023-04-21T07:12:59.011Z,8.03
2023-04-21T07:15:26.020Z,7.83
2023-04-21T07:17:53.076Z,7.33
2023-04-21T07:20:20.124Z,7.10
2023-04-21T07:22:47.118Z,8.03
2023-04-21T07:25:14.102Z,8.50
2023-04-21T07:27:41.164Z,7.00
2023-04-21T07:30:08.746Z,7.37
2023-04-21T07:32:37.407Z,9.10
2023-04-21T07:35:06.366Z,33.47
2023-04-21T07:37:33.369Z,40.40
2023-04-21T07:40:00.319Z,10.77
2023-04-21T07:42:27.371Z,7.73
2023-04-21T07:44:55.951Z,7.03
2023-04-21T07:47:23.096Z,8.23
2023-04-21T07:49:50.116Z,16.00
2023-04-21T07:52:17.199Z,32.77
2023-04-21T07:54:44.236Z,15.80
2023-04-21T07:57:11.555Z,9.90
2023-04-21T07:59:38.656Z,8.37
2023-04-21T08:02:05.968Z,7.80
2023-04-21T08:04:33.214Z,7.03
2023-04-21T08:07:00.530Z,7.17
2023-04-21T08:09:28.074Z,7.73
2023-04-21T08:11:55.338Z,8.23
2023-04-21T08:14:22.432Z,8.10
2023-04-21T08:16:49.817Z,12.57
2023-04-21T08:19:16.932Z,12.83
2023-04-21T08:21:44.001Z,25.13
2023-04-21T08:24:10.946Z,10.90
2023-04-21T08:26:37.929Z,8.17
2023-04-21T08:29:07.496Z,7.20
2023-04-21T08:31:34.657Z,6.77
2023-04-21T08:34:03.022Z,7.10
2023-04-21T08:36:44.901Z,6.73
2023-04-21T08:39:11.872Z,7.73
2023-04-21T08:41:42.873Z,7.00
2023-04-21T08:44:11.638Z,6.53
2023-04-21T08:46:39.999Z,6.97
2023-04-21T08:49:10.120Z,8.00
2023-04-21T08:51:37.162Z,7.60
2023-04-21T08:54:04.165Z,12.50
2023-04-21T08:56:31.218Z,10.33
2023-04-21T08:58:58.162Z,23.97
2023-04-21T09:01:25.209Z,9.60
2023-04-21T09:03:52.280Z,8.10
2023-04-21T09:06:19.771Z,7.77
2023-04-21T09:08:57.657Z,8.00
2023-04-21T09:11:25.652Z,8.00
2023-04-21T09:13:57.042Z,6.97
2023-04-21T09:16:23.937Z,8.30
2023-04-21T09:18:51.573Z,7.20
2023-04-21T09:21:19.881Z,8.00
2023-04-21T09:23:49.920Z,7.33
2023-04-21T09:26:19.791Z,7.10
2023-04-21T09:28:48.721Z,7.87
2023-04-21T09:31:19.902Z,8.10
2023-04-21T09:33:58.842Z,7.30
2023-04-21T09:36:32.100Z,8.27
2023-04-21T09:39:29.016Z,7.17
2023-04-21T09:41:49.836Z,7.03
2023-04-21T09:44:18.200Z,7.33
2023-04-21T09:46:52.234Z,8.07
2023-04-21T09:49:24.076Z,7.73
2023-04-21T09:54:30.301Z,7.77
2023-04-21T09:57:04.125Z,7.43
2023-04-21T09:59:38.562Z,7.20
2023-04-21T10:02:08.187Z,6.73
2023-04-21T10:04:38.184Z,7.30
2023-04-21T10:07:06.514Z,7.40
2023-04-21T10:09:49.232Z,6.73
2023-04-21T10:12:17.407Z,7.47
2023-04-21T10:14:44.381Z,7.90
2023-04-21T10:17:11.878Z,6.57
2023-04-21T10:19:50.336Z,7.03
2023-04-21T10:22:32.677Z,7.00
2023-04-21T10:25:04.406Z,7.90
2023-04-21T10:27:40.728Z,6.67
2023-04-21T10:30:20.939Z,7.43
2023-04-21T10:32:48.433Z,7.40
2023-04-21T10:35:22.401Z,7.10
2023-04-21T10:37:51.455Z,7.30
2023-04-21T10:40:43.072Z,7.33
2023-04-21T10:43:47.208Z,8.47
2023-04-21T10:46:41.452Z,6.83
2023-04-21T10:49:21.286Z,7.10
2023-04-21T10:52:03.340Z,6.40
2023-04-21T10:54:45.881Z,6.80
2023-04-21T10:57:19.503Z,6.43
2023-04-21T10:59:48.303Z,6.93
2023-04-21T11:02:17.386Z,6.80
2023-04-21T11:04:48.611Z,7.67
2023-04-21T11:07:23.221Z,7.33
2023-04-21T11:10:02.283Z,7.17
2023-04-21T11:12:32.112Z,7.13
2023-04-21T11:14:59.104Z,6.40
2023-04-21T11:17:26.593Z,6.00
2023-04-21T11:19:56.060Z,6.33
2023-04-21T11:22:27.224Z,6.40
2023-04-21T11:24:56.502Z,6.00
2023-04-21T11:27:26.723Z,6.50
2023-04-21T11:29:53.784Z,6.47
2023-04-21T11:32:21.342Z,6.80
2023-04-21T11:34:48.408Z,6.07
2023-04-21T11:37:34.343Z,6.27
2023-04-21T11:40:01.671Z,6.90
2023-04-21T11:42:29.326Z,5.90
2023-04-21T11:44:57.162Z,6.17
2023-04-21T11:47:28.515Z,7.20
2023-04-21T11:49:58.454Z,6.83
2023-04-21T11:52:32.829Z,6.90
2023-04-21T11:55:12.964Z,8.30
2023-04-21T11:57:41.119Z,6.50
2023-04-21T12:00:15.362Z,6.43
2023-04-21T12:02:44.131Z,6.87
2023-04-21T12:05:13.407Z,6.40
2023-04-21T12:07:48.887Z,6.80
2023-04-21T12:10:19.998Z,6.70
2023-04-21T12:12:47.861Z,6.07
2023-04-21T12:15:22.888Z,6.83
2023-04-21T12:17:54.535Z,7.07
2023-04-21T12:20:26.494Z,6.90
2023-04-21T12:22:53.607Z,6.50
2023-04-21T12:25:20.603Z,7.07
2023-04-21T12:27:58.547Z,7.57
2023-04-21T12:30:25.677Z,6.50
2023-04-21T12:32:54.339Z,6.13
2023-04-21T12:35:22.530Z,6.00
2023-04-21T12:37:49.583Z,6.40
2023-04-21T12:40:16.411Z,6.77
2023-04-21T12:42:43.342Z,6.27
2023-04-21T12:45:10.785Z,6.97
2023-04-21T12:47:37.823Z,6.03
2023-04-21T12:50:05.622Z,6.40
2023-04-21T12:52:32.557Z,5.70
2023-04-21T12:54:59.534Z,6.37
2023-04-21T12:57:26.842Z,5.83
2023-04-21T12:59:53.786Z,6.90
2023-04-21T13:02:20.895Z,5.80
2023-04-21T13:04:48.162Z,5.57
2023-04-21T13:07:16.338Z,6.70
2023-04-21T13:09:43.395Z,6.60
2023-04-21T13:12:10.557Z,6.97
2023-04-21T13:14:37.489Z,7.10
2023-04-21T13:17:04.414Z,5.70
2023-04-21T13:19:31.593Z,6.43
2023-04-21T13:21:58.868Z,6.70
2023-04-21T13:24:26.813Z,6.00
2023-04-21T13:26:53.805Z,6.43
2023-04-21T13:29:20.784Z,6.47
2023-04-21T13:31:47.784Z,6.40
2023-04-21T13:34:14.776Z,6.40
2023-04-21T13:36:41.831Z,7.20
2023-04-21T13:39:12.025Z,6.10
2023-04-21T13:41:39.213Z,6.40
2023-04-21T13:44:06.385Z,5.83
2023-04-21T13:46:33.535Z,6.33
2023-04-21T13:49:00.653Z,6.40
2023-04-21T13:51:27.765Z,6.50
2023-04-21T13:53:54.793Z,6.30
2023-04-21T13:56:22.018Z,7.17
2023-04-21T13:58:49.058Z,5.97
2023-04-21T14:01:16.963Z,5.90
2023-04-21T14:03:45.285Z,6.20
2023-04-21T14:06:12.535Z,6.40
2023-04-21T14:08:39.596Z,5.97
2023-04-21T14:11:06.558Z,8.67
2023-04-21T14:13:39.534Z,8.53
2023-04-21T14:16:11.877Z,10.10
2023-04-21T14:18:44.429Z,9.33
2023-04-21T14:21:14.441Z,6.80
2023-04-21T14:23:41.428Z,6.83
2023-04-21T14:26:08.359Z,6.50
2023-04-21T14:28:35.631Z,6.50
2023-04-21T14:31:02.641Z,6.43
2023-04-21T14:33:30.096Z,6.67
2023-04-21T14:35:57.100Z,7.10
2023-04-21T14:38:24.529Z,6.40
2023-04-21T14:40:54.509Z,6.70
2023-04-21T14:43:22.292Z,6.27
2023-04-21T14:45:49.431Z,6.80
2023-04-21T14:48:16.541Z,6.77
2023-04-21T14:50:43.856Z,6.83
2023-04-21T14:53:11.199Z,5.90
2023-04-21T14:55:38.123Z,6.50
2023-04-21T14:58:05.045Z,6.23
2023-04-21T15:00:32.108Z,6.10
2023-04-21T15:02:59.361Z,6.80
2023-04-21T15:05:26.422Z,6.27
2023-04-21T15:07:53.418Z,6.70
2023-04-21T15:10:20.521Z,7.30
2023-04-21T15:12:47.793Z,9.17
2023-04-21T15:15:14.756Z,10.70
2023-04-21T15:17:41.759Z,11.60
2023-04-21T15:20:10.224Z,8.00
2023-04-21T15:22:37.308Z,6.80
2023-04-21T15:25:04.684Z,7.07
2023-04-21T15:27:31.720Z,6.63
2023-04-21T15:29:58.890Z,7.20
2023-04-21T15:32:26.269Z,6.77
2023-04-21T15:34:53.338Z,7.03
2023-04-21T15:37:24.180Z,7.40
2023-04-21T15:39:52.013Z,6.50
2023-04-21T15:42:18.907Z,6.30
2023-04-21T15:44:47.196Z,6.70
2023-04-21T15:47:16.552Z,7.03
2023-04-21T15:49:43.857Z,10.17
2023-04-21T15:52:11.343Z,8.57
2023-04-21T15:54:38.600Z,7.77
2023-04-21T15:57:05.882Z,7.30
2023-04-21T15:59:33.007Z,8.80
2023-04-21T16:02:00.888Z,8.57
2023-04-21T16:04:28.521Z,7.77
2023-04-21T16:06:56.097Z,7.47
2023-04-21T16:09:23.652Z,7.27
2023-04-21T16:11:51.444Z,7.10
2023-04-21T16:14:19.150Z,7.17
2023-04-21T16:16:46.411Z,7.33
2023-04-21T16:19:13.693Z,7.50
2023-04-21T16:21:40.981Z,7.50
2023-04-21T16:24:08.936Z,7.10
2023-04-21T16:26:36.841Z,6.80
2023-04-21T16:29:04.026Z,7.10
2023-04-21T16:31:31.580Z,7.73
2023-04-21T16:34:00.454Z,7.80
2023-04-21T16:36:28.879Z,7.70
2023-04-21T16:38:56.419Z,7.67
2023-04-21T16:41:23.639Z,17.73
2023-04-21T16:43:50.804Z,14.80
2023-04-21T16:46:18.377Z,10.13
2023-04-21T16:48:46.177Z,8.70
2023-04-21T16:51:13.281Z,8.60
2023-04-21T16:53:42.185Z,8.00
2023-04-21T16:56:09.601Z,8.30
2023-04-21T16:58:37.750Z,8.53
2023-04-21T17:01:07.428Z,8.50
2023-04-21T17:03:34.842Z,11.37
2023-04-21T17:06:04.565Z,10.80
2023-04-21T17:08:31.486Z,8.87
2023-04-21T17:10:59.995Z,8.80
2023-04-21T17:13:27.124Z,8.50
2023-04-21T17:15:54.011Z,8.50
2023-04-21T17:18:20.991Z,8.90
2023-04-21T17:20:47.910Z,9.60
2023-04-21T17:23:15.039Z,9.67
2023-04-21T17:25:41.928Z,9.50
2023-04-21T17:28:08.847Z,9.53
2023-04-21T17:30:36.316Z,10.00
2023-04-21T17:33:15.501Z,11.27
2023-04-21T17:36:01.791Z,13.67
2023-04-21T17:38:30.079Z,11.80
2023-04-21T17:40:57.001Z,13.57
2023-04-21T17:43:24.418Z,12.40
2023-04-21T17:45:52.361Z,11.67
2023-04-21T17:48:20.119Z,13.43
2023-04-21T17:50:47.055Z,13.87
2023-04-21T17:53:14.014Z,13.00
2023-04-21T17:55:40.966Z,12.80
2023-04-21T17:58:10.811Z,11.97
2023-04-21T18:00:39.157Z,12.87
2023-04-21T18:03:06.642Z,11.53
2023-04-21T18:05:34.320Z,11.33
2023-04-21T18:08:02.064Z,12.50
2023-04-21T18:10:30.005Z,12.60
2023-04-21T18:12:57.923Z,14.90
2023-04-21T18:15:25.265Z,13.30
2023-04-21T18:17:53.137Z,12.67
2023-04-21T18:20:20.840Z,12.00
2023-04-21T18:22:49.073Z,12.03
2023-04-21T18:25:20.232Z,11.80
2023-04-21T18:27:51.530Z,13.00
2023-04-21T18:30:18.538Z,12.80
2023-04-21T18:32:45.572Z,12.27
2023-04-21T18:35:12.535Z,11.80
2023-04-21T18:37:39.402Z,11.63
2023-04-21T18:40:07.359Z,11.80
2023-04-21T18:42:34.351Z,12.23
2023-04-21T18:45:04.246Z,12.70
2023-04-21T18:47:31.877Z,11.73
2023-04-21T18:49:58.846Z,12.70
2023-04-21T18:52:25.845Z,12.00
2023-04-21T18:54:52.776Z,11.40
2023-04-21T18:57:19.754Z,11.90
2023-04-21T18:59:46.671Z,12.17
2023-04-21T19:02:14.148Z,12.30
2023-04-21T19:04:43.633Z,12.63
2023-04-21T19:07:11.445Z,12.70
2023-04-21T19:09:38.627Z,12.33
2023-04-21T19:12:05.734Z,12.27
2023-04-21T19:14:42.388Z,12.90
2023-04-21T19:17:13.003Z,12.93
2023-04-21T19:19:39.899Z,13.33
2023-04-21T19:22:06.831Z,12.97
2023-04-21T19:24:33.920Z,13.80
2023-04-21T19:27:06.022Z,13.20
2023-04-21T19:29:33.396Z,13.80
2023-04-21T19:32:00.455Z,12.63
2023-04-21T19:34:27.476Z,12.90
2023-04-21T19:36:54.636Z,12.80
2023-04-21T19:39:21.655Z,12.93
2023-04-21T19:41:48.626Z,12.67
2023-04-21T19:44:15.535Z,12.33
2023-04-21T19:46:43.082Z,11.37
2023-04-21T19:49:14.156Z,13.03
2023-04-21T19:51:41.449Z,12.73
2023-04-21T19:54:11.862Z,12.77
2023-04-21T19:56:40.275Z,10.47
2023-04-21T19:59:07.545Z,12.10
2023-04-21T20:01:34.769Z,12.30
2023-04-21T20:04:03.236Z,12.17
2023-04-21T20:06:31.609Z,11.00
2023-04-21T20:08:58.629Z,10.80
2023-04-21T20:11:28.786Z,11.33
2023-04-21T20:13:56.151Z,11.27
2023-04-21T20:16:23.812Z,10.83
2023-04-21T20:18:50.882Z,10.97
2023-04-21T20:21:17.817Z,12.17
2023-04-21T20:23:44.828Z,10.47
2023-04-21T20:26:12.261Z,15.77
2023-04-21T20:28:39.375Z,18.93
2023-04-21T20:31:06.360Z,12.57
2023-04-21T20:33:33.388Z,14.60
2023-04-21T20:36:07.277Z,10.40
2023-04-21T20:38:35.527Z,12.80
2023-04-21T20:41:03.468Z,10.90
2023-04-21T20:43:33.169Z,12.37
2023-04-21T20:46:04.318Z,12.00
2023-04-21T20:48:31.423Z,10.70
2023-04-21T20:50:58.451Z,11.27
2023-04-21T20:53:26.072Z,10.87
2023-04-21T20:55:53.387Z,11.13
2023-04-21T20:58:20.450Z,11.93
2023-04-21T21:00:47.529Z,11.80
2023-04-21T21:03:14.984Z,11.40
2023-04-21T21:05:43.744Z,12.40
2023-04-21T21:08:10.801Z,12.53
2023-04-21T21:10:37.743Z,13.30
2023-04-21T21:13:05.271Z,11.57
2023-04-21T21:15:32.251Z,12.00
2023-04-21T21:17:59.881Z,11.90
2023-04-21T21:20:27.644Z,11.63
2023-04-21T21:22:54.591Z,11.17
2023-04-21T21:25:21.554Z,12.60
2023-04-21T21:27:48.573Z,11.13
2023-04-21T21:30:15.626Z,10.53
2023-04-21T21:32:42.586Z,11.37
2023-04-21T21:35:10.326Z,10.67
2023-04-21T21:37:38.018Z,11.63
2023-04-21T21:40:06.219Z,10.03
2023-04-21T21:42:33.151Z,10.23
2023-04-21T21:45:00.967Z,10.20
2023-04-21T21:47:28.408Z,10.53
2023-04-21T21:49:57.748Z,9.83
2023-04-21T21:52:24.975Z,9.20
2023-04-21T21:54:52.697Z,10.60
2023-04-21T21:57:19.623Z,9.80
2023-04-21T21:59:47.095Z,9.97
2023-04-21T22:02:14.899Z,11.90
2023-04-21T22:04:42.942Z,10.60
2023-04-21T22:07:09.947Z,10.90
2023-04-21T22:09:38.334Z,10.77
2023-04-21T22:12:07.216Z,10.80
2023-04-21T22:14:34.520Z,9.97
2023-04-21T22:17:02.799Z,10.70
2023-04-21T22:19:30.974Z,10.40
2023-04-21T22:21:57.927Z,9.10
2023-04-21T22:24:25.012Z,10.77
2023-04-21T22:26:52.157Z,9.93
2023-04-21T22:29:19.297Z,9.30
2023-04-21T22:31:47.000Z,8.70
2023-04-21T22:34:16.624Z,9.70
2023-04-21T22:36:43.639Z,9.40
2023-04-21T22:39:10.925Z,10.43
2023-04-21T22:41:38.989Z,9.60
2023-04-21T22:44:05.959Z,9.60
2023-04-21T22:46:33.709Z,9.23
2023-04-21T22:49:03.219Z,10.03
2023-04-21T22:51:32.201Z,9.77
2023-04-21T22:54:00.333Z,8.67
2023-04-21T22:56:28.401Z,9.50
2023-04-21T22:58:55.651Z,9.20
2023-04-21T23:01:22.829Z,8.40
2023-04-21T23:03:50.111Z,9.57
2023-04-21T23:06:17.127Z,9.63
2023-04-21T23:08:44.116Z,9.17
2023-04-21T23:11:11.194Z,9.53
2023-04-21T23:13:38.368Z,10.87
2023-04-21T23:16:05.723Z,9.50
2023-04-21T23:18:32.898Z,8.90
2023-04-21T23:20:59.823Z,9.00
2023-04-21T23:23:26.758Z,9.73
2023-04-21T23:25:53.698Z,9.20
2023-04-21T23:28:20.610Z,9.10
2023-04-21T23:30:47.769Z,9.50
2023-04-21T23:33:14.828Z,9.17
2023-04-21T23:35:41.966Z,9.17
2023-04-21T23:38:08.892Z,10.60
2023-04-21T23:40:35.896Z,9.10
2023-04-21T23:43:02.878Z,9.70
2023-04-21T23:45:30.090Z,10.07
2023-04-21T23:47:57.099Z,9.50
2023-04-21T23:50:24.285Z,9.27
2023-04-21T23:52:51.287Z,9.90
2023-04-21T23:55:18.495Z,9.60
2023-04-21T23:57:46.788Z,9.53
